createdAt,value
2023-03-08T00:02:42.438Z,1.17
2023-03-08T00:05:44.303Z,0.80
2023-03-08T00:08:48.309Z,0.90
2023-03-08T00:11:49.826Z,0.85
2023-03-08T00:14:51.698Z,1.10
2023-03-08T00:17:53.195Z,0.82
2023-03-08T00:21:12.715Z,0.93
2023-03-08T00:24:16.616Z,0.98
2023-03-08T00:27:18.081Z,0.80
2023-03-08T00:30:19.797Z,0.90
2023-03-08T00:33:22.165Z,1.05
2023-03-08T00:36:23.711Z,0.90
2023-03-08T00:39:25.214Z,1.13
2023-03-08T00:42:26.843Z,0.80
2023-03-08T00:45:28.347Z,0.93
2023-03-08T00:48:29.895Z,0.88
2023-03-08T00:51:31.389Z,0.90
2023-03-08T00:54:33.172Z,1.10
2023-03-08T00:57:34.714Z,0.80
2023-03-08T01:00:36.231Z,0.90
2023-03-08T01:03:37.768Z,0.70
2023-03-08T01:06:40.086Z,0.90
2023-03-08T01:09:44.948Z,0.80
2023-03-08T01:12:48.552Z,0.80
2023-03-08T01:15:50.201Z,0.90
2023-03-08T01:18:52.633Z,0.90
2023-03-08T01:21:54.741Z,0.90
2023-03-08T01:24:56.315Z,0.80
2023-03-08T01:27:57.830Z,0.95
2023-03-08T01:31:03.190Z,0.82
2023-03-08T01:34:04.681Z,0.80
2023-03-08T01:37:06.584Z,0.80
2023-03-08T01:40:10.027Z,0.90
2023-03-08T01:43:29.365Z,0.73
2023-03-08T01:46:35.669Z,0.80
2023-03-08T01:49:43.199Z,0.90
2023-03-08T01:52:48.518Z,0.90
2023-03-08T01:55:50.053Z,0.77
2023-03-08T01:58:52.548Z,0.90
2023-03-08T02:01:54.026Z,0.70
2023-03-08T02:04:56.551Z,0.80
2023-03-08T02:07:59.260Z,0.80
2023-03-08T02:11:05.563Z,0.88
2023-03-08T02:14:08.485Z,0.85
2023-03-08T02:17:12.013Z,0.80
2023-03-08T02:20:32.849Z,0.80
2023-03-08T02:26:42.298Z,0.90
2023-03-08T02:29:44.322Z,0.82
2023-03-08T02:32:45.938Z,0.90
2023-03-08T02:35:47.615Z,0.75
2023-03-08T02:38:49.144Z,0.80
2023-03-08T02:41:50.653Z,0.70
2023-03-08T02:44:52.162Z,0.80
2023-03-08T02:47:53.661Z,0.70
2023-03-08T02:50:55.292Z,0.80
2023-03-08T02:53:56.817Z,0.70
2023-03-08T02:56:58.447Z,0.80
2023-03-08T03:00:00.046Z,0.73
2023-03-08T03:03:02.975Z,0.90
2023-03-08T03:06:04.848Z,0.80
2023-03-08T03:09:10.093Z,0.68
2023-03-08T03:12:12.257Z,0.80
2023-03-08T03:15:15.782Z,0.80
2023-03-08T03:18:19.625Z,0.95
2023-03-08T03:21:21.857Z,0.70
2023-03-08T03:24:23.376Z,0.75
2023-03-08T03:27:28.609Z,1.15
2023-03-08T03:30:31.225Z,0.80
2023-03-08T03:33:35.103Z,0.77
2023-03-08T03:36:37.205Z,0.80
2023-03-08T03:39:39.855Z,0.88
2023-03-08T03:42:44.252Z,0.77
2023-03-08T03:45:56.018Z,0.93
2023-03-08T03:48:58.624Z,0.80
2023-03-08T03:52:05.744Z,0.70
2023-03-08T03:55:14.362Z,0.70
2023-03-08T03:58:17.082Z,0.77
2023-03-08T04:01:28.902Z,0.70
2023-03-08T04:04:37.056Z,0.80
2023-03-08T04:07:39.707Z,0.70
2023-03-08T04:10:42.556Z,0.90
2023-03-08T04:13:44.563Z,0.60
2023-03-08T04:16:46.408Z,0.82
2023-03-08T04:19:57.256Z,0.68
2023-03-08T04:22:59.060Z,0.80
2023-03-08T04:26:09.834Z,0.70
2023-03-08T04:29:12.436Z,0.75
2023-03-08T04:32:14.962Z,0.80
2023-03-08T04:35:24.486Z,0.88
2023-03-08T04:38:28.479Z,0.70
2023-03-08T04:41:32.362Z,0.70
2023-03-08T04:44:57.044Z,0.70
2023-03-08T04:47:59.229Z,0.73
2023-03-08T04:51:03.658Z,0.70
2023-03-08T04:54:05.313Z,0.70
2023-03-08T04:57:10.299Z,0.70
2023-03-08T05:00:13.744Z,0.70
2023-03-08T05:03:17.594Z,0.80
2023-03-08T05:06:21.067Z,0.70
2023-03-08T05:09:23.486Z,0.70
2023-03-08T05:12:26.515Z,0.68
2023-03-08T05:15:32.243Z,0.70
2023-03-08T05:18:34.175Z,0.60
2023-03-08T05:21:35.783Z,0.80
2023-03-08T05:24:40.999Z,0.52
2023-03-08T05:27:45.034Z,0.70
2023-03-08T05:30:47.848Z,0.50
2023-03-08T05:33:52.312Z,0.80
2023-03-08T05:37:01.570Z,0.60
2023-03-08T05:40:06.350Z,0.60
2023-03-08T05:43:10.906Z,0.70
2023-03-08T05:46:18.631Z,0.70
2023-03-08T05:49:20.718Z,0.65
2023-03-08T05:52:22.315Z,0.70
2023-03-08T05:55:24.640Z,0.70
2023-03-08T05:58:26.227Z,0.60
2023-03-08T06:01:28.424Z,0.70
2023-03-08T06:04:36.461Z,0.60
2023-03-08T06:07:38.198Z,0.55
2023-03-08T06:13:46.098Z,0.60
2023-03-08T06:16:48.813Z,0.60
2023-03-08T06:19:51.886Z,0.68
2023-03-08T06:22:53.892Z,0.60
2023-03-08T06:25:56.095Z,0.60
2023-03-08T06:28:57.787Z,0.70
2023-03-08T06:32:03.225Z,0.68
2023-03-08T06:35:07.137Z,0.60
2023-03-08T06:38:12.076Z,0.70
2023-03-08T06:41:16.245Z,0.65
2023-03-08T06:44:19.425Z,0.60
2023-03-08T06:47:21.068Z,0.60
2023-03-08T06:50:22.825Z,0.60
2023-03-08T06:53:25.233Z,0.57
2023-03-08T06:56:31.064Z,0.80
2023-03-08T06:59:32.656Z,0.82
2023-03-08T07:02:34.131Z,0.73
2023-03-08T07:05:35.639Z,0.70
2023-03-08T07:08:37.941Z,0.70
2023-03-08T07:11:39.959Z,0.70
2023-03-08T07:14:41.425Z,0.80
2023-03-08T07:17:43.412Z,0.70
2023-03-08T07:20:45.462Z,0.70
2023-03-08T07:23:46.944Z,0.70
2023-03-08T07:26:48.405Z,0.80
2023-03-08T07:29:50.469Z,0.60
2023-03-08T07:32:55.423Z,1.00
2023-03-08T07:36:01.487Z,0.88
2023-03-08T07:39:03.153Z,0.98
2023-03-08T07:42:05.051Z,0.90
2023-03-08T07:45:07.431Z,1.00
2023-03-08T07:48:09.032Z,0.90
2023-03-08T07:51:13.244Z,0.88
2023-03-08T07:54:17.326Z,0.90
2023-03-08T07:57:18.862Z,0.90
2023-03-08T08:00:20.788Z,0.95
2023-03-08T08:03:22.325Z,1.02
2023-03-08T08:06:23.952Z,0.90
2023-03-08T08:09:25.498Z,1.10
2023-03-08T08:12:27.044Z,1.00
2023-03-08T08:15:30.794Z,0.90
2023-03-08T08:18:32.460Z,0.90
2023-03-08T08:21:33.914Z,2.80
2023-03-08T08:24:35.743Z,3.25
2023-03-08T08:27:37.302Z,3.30
2023-03-08T08:30:38.783Z,3.75
2023-03-08T08:33:40.342Z,4.40
2023-03-08T08:36:41.889Z,3.95
2023-03-08T08:39:43.367Z,4.30
2023-03-08T08:42:44.857Z,4.50
2023-03-08T08:45:48.954Z,4.93
2023-03-08T08:48:50.519Z,4.50
2023-03-08T08:51:53.276Z,4.90
2023-03-08T08:54:54.952Z,4.88
2023-03-08T08:57:56.484Z,4.40
2023-03-08T09:00:57.953Z,3.50
2023-03-08T09:04:00.333Z,2.70
2023-03-08T09:07:01.846Z,2.85
2023-03-08T09:10:03.457Z,2.50
2023-03-08T09:13:06.120Z,2.20
2023-03-08T09:16:19.834Z,2.40
2023-03-08T09:19:21.438Z,2.65
2023-03-08T09:22:22.997Z,2.35
2023-03-08T09:25:24.640Z,2.53
2023-03-08T09:28:26.167Z,2.17
2023-03-08T09:31:27.797Z,2.17
2023-03-08T09:34:29.413Z,1.95
2023-03-08T09:37:31.482Z,2.20
2023-03-08T09:40:46.328Z,1.92
2023-03-08T09:44:16.220Z,2.28
2023-03-08T09:47:22.570Z,2.00
2023-03-08T09:50:39.304Z,1.98
2023-03-08T09:53:40.784Z,2.30
2023-03-08T09:56:51.326Z,1.80
2023-03-08T09:59:57.198Z,1.90
2023-03-08T10:03:37.227Z,2.00
2023-03-08T10:06:53.294Z,2.17
2023-03-08T10:10:05.667Z,2.00
2023-03-08T10:13:32.870Z,1.50
2023-03-08T10:16:43.623Z,1.92
2023-03-08T10:19:57.548Z,1.65
2023-03-08T10:23:12.464Z,2.00
2023-03-08T10:26:15.410Z,1.83
2023-03-08T10:29:16.890Z,1.70
2023-03-08T10:32:18.699Z,1.73
2023-03-08T10:35:32.288Z,1.70
2023-03-08T10:38:36.303Z,1.70
2023-03-08T10:41:43.708Z,2.20
2023-03-08T10:44:53.991Z,1.73
2023-03-08T10:48:02.364Z,1.77
2023-03-08T10:51:07.105Z,1.60
2023-03-08T10:54:15.124Z,1.55
2023-03-08T10:57:20.015Z,1.70
2023-03-08T11:00:42.843Z,1.55
2023-03-08T11:03:44.576Z,1.58
2023-03-08T11:06:46.292Z,1.40
2023-03-08T11:09:49.312Z,1.40
2023-03-08T11:13:01.669Z,1.52
2023-03-08T11:16:22.629Z,1.60
2023-03-08T11:19:34.886Z,1.80
2023-03-08T11:22:54.991Z,1.40
2023-03-08T11:26:20.704Z,1.45
2023-03-08T11:29:35.868Z,1.55
2023-03-08T11:33:09.790Z,1.50
2023-03-08T11:36:33.254Z,1.58
2023-03-08T11:39:49.939Z,1.42
2023-03-08T11:43:13.768Z,1.40
2023-03-08T11:46:42.491Z,1.40
2023-03-08T11:49:43.960Z,1.30
2023-03-08T11:52:51.313Z,1.50
2023-03-08T11:56:01.937Z,1.50
2023-03-08T11:59:10.889Z,1.63
2023-03-08T12:02:20.690Z,1.30
2023-03-08T12:05:36.184Z,1.35
2023-03-08T12:08:48.008Z,1.70
2023-03-08T12:11:58.549Z,1.70
2023-03-08T12:15:24.617Z,1.70
2023-03-08T12:18:31.999Z,2.30
2023-03-08T12:21:41.668Z,6.10
2023-03-08T12:24:45.911Z,13.73
2023-03-08T12:27:59.854Z,18.42
2023-03-08T12:31:35.500Z,20.67
2023-03-08T12:34:40.205Z,22.85
2023-03-08T12:37:41.806Z,23.92
2023-03-08T12:40:49.271Z,21.58
2023-03-08T12:44:23.316Z,24.75
2023-03-08T12:47:25.186Z,22.73
2023-03-08T12:50:27.159Z,23.27
2023-03-08T12:53:46.051Z,22.95
2023-03-08T12:56:54.204Z,20.52
2023-03-08T12:59:59.554Z,20.77
2023-03-08T13:03:03.282Z,20.15
2023-03-08T13:06:22.869Z,19.95
2023-03-08T13:09:32.917Z,19.88
2023-03-08T13:12:41.940Z,19.50
2023-03-08T13:15:43.527Z,18.83
2023-03-08T13:18:48.554Z,18.23
2023-03-08T13:22:16.902Z,17.67
2023-03-08T13:25:51.710Z,16.63
2023-03-08T13:28:53.590Z,14.48
2023-03-08T13:31:56.127Z,13.93
2023-03-08T13:35:03.057Z,13.93
2023-03-08T13:38:04.556Z,13.05
2023-03-08T13:41:06.058Z,11.95
2023-03-08T13:44:13.308Z,11.50
2023-03-08T13:47:34.887Z,10.75
2023-03-08T13:50:41.758Z,9.52
2023-03-08T13:53:43.613Z,9.63
2023-03-08T13:56:45.221Z,9.57
2023-03-08T13:59:52.245Z,9.30
2023-03-08T14:02:53.938Z,8.80
2023-03-08T14:05:55.541Z,8.45
2023-03-08T14:09:00.474Z,8.40
2023-03-08T14:12:07.190Z,8.23
2023-03-08T14:15:18.502Z,8.07
2023-03-08T14:18:36.673Z,7.35
2023-03-08T14:21:38.635Z,7.47
2023-03-08T14:24:42.212Z,7.10
2023-03-08T14:27:45.237Z,7.72
2023-03-08T14:30:48.812Z,6.57
2023-03-08T14:34:02.482Z,7.32
2023-03-08T14:37:26.018Z,6.50
2023-03-08T14:40:36.708Z,6.57
2023-03-08T14:43:38.313Z,6.53
2023-03-08T14:46:39.875Z,5.78
2023-03-08T14:49:41.386Z,5.75
2023-03-08T14:52:49.269Z,6.03
2023-03-08T14:55:50.710Z,5.68
2023-03-08T14:58:53.745Z,5.40
2023-03-08T15:01:55.449Z,5.50
2023-03-08T15:04:57.019Z,5.20
2023-03-08T15:08:00.364Z,4.93
2023-03-08T15:11:01.885Z,5.00
2023-03-08T15:14:03.436Z,4.90
2023-03-08T15:17:04.960Z,4.90
2023-03-08T15:20:06.872Z,4.82
2023-03-08T15:23:08.820Z,4.50
2023-03-08T15:26:17.410Z,4.20
2023-03-08T15:29:29.568Z,4.30
2023-03-08T15:32:31.078Z,4.03
2023-03-08T15:35:32.801Z,3.85
2023-03-08T15:38:34.421Z,4.00
2023-03-08T15:41:35.900Z,3.55
2023-03-08T15:44:37.405Z,4.00
2023-03-08T15:47:39.088Z,3.45
2023-03-08T15:50:41.246Z,3.83
2023-03-08T15:53:42.750Z,3.38
2023-03-08T15:56:44.240Z,3.67
2023-03-08T15:59:45.955Z,3.28
2023-03-08T16:02:47.835Z,3.20
2023-03-08T16:05:49.341Z,3.40
2023-03-08T16:08:50.925Z,3.20
2023-03-08T16:11:52.370Z,3.17
2023-03-08T16:15:00.106Z,2.85
2023-03-08T16:18:01.631Z,3.00
2023-03-08T16:21:08.785Z,3.20
2023-03-08T16:24:11.072Z,2.70
2023-03-08T16:27:12.607Z,3.10
2023-03-08T16:30:14.350Z,2.85
2023-03-08T16:33:17.963Z,2.55
2023-03-08T16:36:19.734Z,2.90
2023-03-08T16:39:21.627Z,2.42
2023-03-08T16:42:23.188Z,2.60
2023-03-08T16:45:24.927Z,2.70
2023-03-08T16:48:27.836Z,2.38
2023-03-08T16:51:30.630Z,2.38
2023-03-08T16:54:32.193Z,2.30
2023-03-08T16:57:33.711Z,2.20
2023-03-08T17:00:35.165Z,2.40
2023-03-08T17:03:38.463Z,2.33
2023-03-08T17:06:43.893Z,2.30
2023-03-08T17:09:46.281Z,2.17
2023-03-08T17:12:47.861Z,2.28
2023-03-08T17:15:49.419Z,2.20
2023-03-08T17:18:51.610Z,2.40
2023-03-08T17:21:53.391Z,2.05
2023-03-08T17:24:54.912Z,2.10
2023-03-08T17:27:56.509Z,2.00
2023-03-08T17:30:58.866Z,1.88
2023-03-08T17:34:00.350Z,1.90
2023-03-08T17:37:01.846Z,1.90
2023-03-08T17:40:03.768Z,2.03
2023-03-08T17:43:05.335Z,2.00
2023-03-08T17:46:12.226Z,1.92
2023-03-08T17:49:13.954Z,1.90
2023-03-08T17:52:15.783Z,1.85
2023-03-08T17:55:17.364Z,1.90
2023-03-08T17:58:19.818Z,2.00
2023-03-08T18:01:24.143Z,1.70
2023-03-08T18:04:26.113Z,1.88
2023-03-08T18:07:29.006Z,2.00
2023-03-08T18:10:30.601Z,2.00
2023-03-08T18:13:32.047Z,1.85
2023-03-08T18:16:34.531Z,1.90
2023-03-08T18:19:36.083Z,1.70
2023-03-08T18:22:38.390Z,1.70
2023-03-08T18:25:40.533Z,1.73
2023-03-08T18:28:42.131Z,1.70
2023-03-08T18:31:43.738Z,1.90
2023-03-08T18:34:45.781Z,1.90
2023-03-08T18:37:47.331Z,1.67
2023-03-08T18:40:48.804Z,1.80
2023-03-08T18:43:51.214Z,1.60
2023-03-08T18:46:52.980Z,1.80
2023-03-08T18:49:54.526Z,2.00
2023-03-08T18:52:56.559Z,1.70
2023-03-08T18:56:00.666Z,1.60
2023-03-08T18:59:05.742Z,1.90
2023-03-08T19:02:07.419Z,1.50
2023-03-08T19:05:09.185Z,1.80
2023-03-08T19:08:10.695Z,1.75
2023-03-08T19:11:18.888Z,1.67
2023-03-08T19:14:20.352Z,1.50
2023-03-08T19:17:21.799Z,1.55
2023-03-08T19:20:24.742Z,1.70
2023-03-08T19:23:26.304Z,1.50
2023-03-08T19:26:36.139Z,1.63
2023-03-08T19:29:37.663Z,1.60
2023-03-08T19:32:40.988Z,1.60
2023-03-08T19:35:43.698Z,1.52
2023-03-08T19:38:45.213Z,1.80
2023-03-08T19:41:49.137Z,1.90
2023-03-08T19:44:52.569Z,1.60
2023-03-08T19:47:54.030Z,1.60
2023-03-08T19:50:55.870Z,1.70
2023-03-08T19:53:57.430Z,1.90
2023-03-08T19:56:59.741Z,1.73
2023-03-08T20:00:01.371Z,1.73
2023-03-08T20:03:15.489Z,1.80
2023-03-08T20:06:26.076Z,1.70
2023-03-08T20:09:27.870Z,1.85
2023-03-08T20:12:29.346Z,1.70
2023-03-08T20:15:32.081Z,1.67
2023-03-08T20:18:33.749Z,1.60
2023-03-08T20:21:35.290Z,1.67
2023-03-08T20:24:36.814Z,1.70
2023-03-08T20:27:40.300Z,1.40
2023-03-08T20:30:41.803Z,1.75
2023-03-08T20:33:44.343Z,1.55
2023-03-08T20:36:47.320Z,1.90
2023-03-08T20:39:52.915Z,1.65
2023-03-08T20:42:57.808Z,1.50
2023-03-08T20:46:05.721Z,1.80
2023-03-08T20:49:07.331Z,1.65
2023-03-08T20:52:09.671Z,1.70
2023-03-08T20:55:11.339Z,1.63
2023-03-08T20:58:12.800Z,1.50
2023-03-08T21:01:20.769Z,1.60
2023-03-08T21:04:23.345Z,1.42
2023-03-08T21:07:24.820Z,1.50
2023-03-08T21:10:26.364Z,1.92
2023-03-08T21:13:27.863Z,1.52
2023-03-08T21:16:30.477Z,1.30
2023-03-08T21:19:32.034Z,1.40
2023-03-08T21:22:33.553Z,1.23
2023-03-08T21:25:35.741Z,1.33
2023-03-08T21:28:37.225Z,1.40
2023-03-08T21:31:44.717Z,1.48
2023-03-08T21:34:46.189Z,1.30
2023-03-08T21:37:47.723Z,1.20
2023-03-08T21:40:49.193Z,1.10
2023-03-08T21:43:51.091Z,1.40
2023-03-08T21:46:53.281Z,1.33
2023-03-08T21:49:54.874Z,1.30
2023-03-08T21:52:56.340Z,1.35
2023-03-08T21:55:57.884Z,1.20
2023-03-08T21:58:59.331Z,1.30
2023-03-08T22:02:00.878Z,1.23
2023-03-08T22:05:03.960Z,1.05
2023-03-08T22:08:05.445Z,1.25
2023-03-08T22:11:06.990Z,1.40
2023-03-08T22:14:08.512Z,1.23
2023-03-08T22:17:10.003Z,1.20
2023-03-08T22:20:12.266Z,1.33
2023-03-08T22:23:13.828Z,1.20
2023-03-08T22:26:15.375Z,1.30
2023-03-08T22:29:16.844Z,1.23
2023-03-08T22:32:18.714Z,1.35
2023-03-08T22:35:21.408Z,1.20
2023-03-08T22:38:22.930Z,1.40
2023-03-08T22:41:26.941Z,1.30
2023-03-08T22:44:28.449Z,1.30
2023-03-08T22:47:30.029Z,1.27
2023-03-08T22:50:31.504Z,1.30
2023-03-08T22:53:33.050Z,1.10
2023-03-08T22:56:35.127Z,1.30
2023-03-08T22:59:36.754Z,1.20
2023-03-08T23:02:38.208Z,1.30
2023-03-08T23:05:39.739Z,1.20
2023-03-08T23:08:41.336Z,1.20
2023-03-08T23:11:43.185Z,1.30
2023-03-08T23:14:45.408Z,1.30
2023-03-08T23:17:47.012Z,1.10
2023-03-08T23:20:48.532Z,1.10
2023-03-08T23:23:50.328Z,1.20
2023-03-08T23:26:54.081Z,1.27
2023-03-08T23:29:55.555Z,1.00
2023-03-08T23:32:57.020Z,1.00
2023-03-08T23:35:58.622Z,1.13
2023-03-08T23:39:02.517Z,1.17
2023-03-08T23:42:05.830Z,1.10
2023-03-08T23:45:08.030Z,1.00
2023-03-08T23:48:09.979Z,1.10
2023-03-08T23:51:14.436Z,1.42
2023-03-08T23:54:15.906Z,1.20
2023-03-08T23:57:17.422Z,1.10
